sensor_id;sensor_type;location;lat;lon;timestamp;P1;durP1;ratioP1;P2;durP2;ratioP2
13795;SDS011;40911;51.552;9.874;2023-03-26T00:00:46;2.65;;;2.50;;
13795;SDS011;40911;51.552;9.874;2023-03-26T00:03:09;2.70;;;2.50;;
13795;SDS011;40911;51.552;9.874;2023-03-26T00:05:30;2.45;;;2.22;;
13795;SDS011;40911;51.552;9.874;2023-03-26T00:07:52;2.65;;;2.40;;
13795;SDS011;40911;51.552;9.874;2023-03-26T00:10:14;4.30;;;2.47;;
13795;SDS011;40911;51.552;9.874;2023-03-26T00:14:58;3.00;;;2.40;;
13795;SDS011;40911;51.552;9.874;2023-03-26T00:17:20;6.22;;;3.50;;
13795;SDS011;40911;51.552;9.874;2023-03-26T00:19:42;2.40;;;2.28;;
13795;SDS011;40911;51.552;9.874;2023-03-26T00:22:03;2.85;;;2.10;;
13795;SDS011;40911;51.552;9.874;2023-03-26T00:24:25;2.42;;;2.22;;
13795;SDS011;40911;51.552;9.874;2023-03-26T00:26:48;4.35;;;2.22;;
13795;SDS011;40911;51.552;9.874;2023-03-26T00:29:13;4.78;;;2.30;;
13795;SDS011;40911;51.552;9.874;2023-03-26T00:31:35;2.50;;;2.30;;
13795;SDS011;40911;51.552;9.874;2023-03-26T00:33:58;2.47;;;2.28;;
13795;SDS011;40911;51.552;9.874;2023-03-26T00:36:23;2.70;;;2.50;;
13795;SDS011;40911;51.552;9.874;2023-03-26T00:38:45;2.67;;;2.47;;
13795;SDS011;40911;51.552;9.874;2023-03-26T00:41:09;2.75;;;2.50;;
13795;SDS011;40911;51.552;9.874;2023-03-26T00:43:42;2.80;;;2.60;;
13795;SDS011;40911;51.552;9.874;2023-03-26T00:46:07;5.78;;;2.75;;
13795;SDS011;40911;51.552;9.874;2023-03-26T00:48:28;4.70;;;2.90;;
13795;SDS011;40911;51.552;9.874;2023-03-26T00:50:50;4.53;;;3.10;;
13795;SDS011;40911;51.552;9.874;2023-03-26T00:53:12;5.07;;;3.03;;
13795;SDS011;40911;51.552;9.874;2023-03-26T00:55:34;4.22;;;3.38;;
13795;SDS011;40911;51.552;9.874;2023-03-26T00:57:55;3.78;;;3.40;;
13795;SDS011;40911;51.552;9.874;2023-03-26T01:00:17;6.18;;;3.72;;
13795;SDS011;40911;51.552;9.874;2023-03-26T01:02:49;6.13;;;3.40;;
13795;SDS011;40911;51.552;9.874;2023-03-26T01:05:38;4.22;;;3.22;;
13795;SDS011;40911;51.552;9.874;2023-03-26T01:08:03;4.70;;;3.45;;
13795;SDS011;40911;51.552;9.874;2023-03-26T01:10:34;5.22;;;3.83;;
13795;SDS011;40911;51.552;9.874;2023-03-26T01:12:57;4.47;;;3.40;;
13795;SDS011;40911;51.552;9.874;2023-03-26T01:15:19;8.77;;;3.60;;
13795;SDS011;40911;51.552;9.874;2023-03-26T01:17:41;4.63;;;3.40;;
13795;SDS011;40911;51.552;9.874;2023-03-26T01:20:07;4.80;;;3.50;;
13795;SDS011;40911;51.552;9.874;2023-03-26T01:22:34;4.90;;;3.90;;
13795;SDS011;40911;51.552;9.874;2023-03-26T01:24:58;4.05;;;3.28;;
13795;SDS011;40911;51.552;9.874;2023-03-26T01:27:22;5.18;;;3.15;;
13795;SDS011;40911;51.552;9.874;2023-03-26T01:29:52;3.70;;;3.10;;
13795;SDS011;40911;51.552;9.874;2023-03-26T01:32:17;3.80;;;3.08;;
13795;SDS011;40911;51.552;9.874;2023-03-26T01:34:52;6.00;;;3.10;;
13795;SDS011;40911;51.552;9.874;2023-03-26T01:37:25;4.05;;;3.00;;
13795;SDS011;40911;51.552;9.874;2023-03-26T01:39:55;5.35;;;3.33;;
13795;SDS011;40911;51.552;9.874;2023-03-26T01:42:26;8.65;;;3.17;;
13795;SDS011;40911;51.552;9.874;2023-03-26T01:44:56;4.22;;;2.97;;
13795;SDS011;40911;51.552;9.874;2023-03-26T01:47:21;4.50;;;2.90;;
13795;SDS011;40911;51.552;9.874;2023-03-26T01:49:43;4.05;;;2.78;;
13795;SDS011;40911;51.552;9.874;2023-03-26T01:52:05;4.80;;;2.88;;
13795;SDS011;40911;51.552;9.874;2023-03-26T01:54:32;3.28;;;2.58;;
13795;SDS011;40911;51.552;9.874;2023-03-26T01:56:57;7.15;;;2.83;;
13795;SDS011;40911;51.552;9.874;2023-03-26T01:59:35;3.20;;;2.90;;
13795;SDS011;40911;51.552;9.874;2023-03-26T02:02:10;2.85;;;2.40;;
13795;SDS011;40911;51.552;9.874;2023-03-26T02:04:34;5.80;;;2.80;;
13795;SDS011;40911;51.552;9.874;2023-03-26T02:07:02;6.53;;;2.85;;
13795;SDS011;40911;51.552;9.874;2023-03-26T02:09:28;6.88;;;2.90;;
13795;SDS011;40911;51.552;9.874;2023-03-26T02:11:52;3.30;;;2.42;;
13795;SDS011;40911;51.552;9.874;2023-03-26T02:14:14;3.20;;;2.50;;
13795;SDS011;40911;51.552;9.874;2023-03-26T02:16:38;6.25;;;2.85;;
13795;SDS011;40911;51.552;9.874;2023-03-26T02:18:59;4.25;;;2.80;;
13795;SDS011;40911;51.552;9.874;2023-03-26T02:21:22;3.08;;;2.47;;
13795;SDS011;40911;51.552;9.874;2023-03-26T02:23:45;6.75;;;2.50;;
13795;SDS011;40911;51.552;9.874;2023-03-26T02:26:09;3.08;;;2.42;;
13795;SDS011;40911;51.552;9.874;2023-03-26T02:30:52;3.90;;;2.60;;
13795;SDS011;40911;51.552;9.874;2023-03-26T02:33:18;5.28;;;2.58;;
13795;SDS011;40911;51.552;9.874;2023-03-26T02:35:40;4.55;;;2.63;;
13795;SDS011;40911;51.552;9.874;2023-03-26T02:38:04;5.72;;;2.70;;
13795;SDS011;40911;51.552;9.874;2023-03-26T02:40:29;5.35;;;2.88;;
13795;SDS011;40911;51.552;9.874;2023-03-26T02:42:50;4.20;;;2.95;;
13795;SDS011;40911;51.552;9.874;2023-03-26T02:45:12;6.18;;;2.90;;
13795;SDS011;40911;51.552;9.874;2023-03-26T02:47:33;3.88;;;2.92;;
13795;SDS011;40911;51.552;9.874;2023-03-26T02:49:56;4.35;;;3.28;;
13795;SDS011;40911;51.552;9.874;2023-03-26T02:52:18;5.22;;;2.90;;
13795;SDS011;40911;51.552;9.874;2023-03-26T02:54:39;4.18;;;3.35;;
13795;SDS011;40911;51.552;9.874;2023-03-26T02:57:01;3.88;;;3.30;;
13795;SDS011;40911;51.552;9.874;2023-03-26T03:01:44;3.60;;;3.03;;
13795;SDS011;40911;51.552;9.874;2023-03-26T03:04:06;3.60;;;3.15;;
13795;SDS011;40911;51.552;9.874;2023-03-26T03:06:29;3.72;;;3.30;;
13795;SDS011;40911;51.552;9.874;2023-03-26T03:08:51;3.58;;;3.28;;
13795;SDS011;40911;51.552;9.874;2023-03-26T03:11:14;3.92;;;3.20;;
13795;SDS011;40911;51.552;9.874;2023-03-26T03:13:37;4.07;;;3.40;;
13795;SDS011;40911;51.552;9.874;2023-03-26T03:15:58;5.32;;;3.85;;
13795;SDS011;40911;51.552;9.874;2023-03-26T03:18:20;4.72;;;3.53;;
13795;SDS011;40911;51.552;9.874;2023-03-26T03:20:42;4.40;;;3.40;;
13795;SDS011;40911;51.552;9.874;2023-03-26T03:23:05;5.45;;;3.63;;
13795;SDS011;40911;51.552;9.874;2023-03-26T03:25:26;4.30;;;3.35;;
13795;SDS011;40911;51.552;9.874;2023-03-26T03:27:48;6.18;;;3.50;;
13795;SDS011;40911;51.552;9.874;2023-03-26T03:30:10;3.10;;;2.80;;
13795;SDS011;40911;51.552;9.874;2023-03-26T03:32:33;3.88;;;2.78;;
13795;SDS011;40911;51.552;9.874;2023-03-26T03:34:55;4.53;;;2.95;;
13795;SDS011;40911;51.552;9.874;2023-03-26T03:37:17;3.83;;;2.97;;
13795;SDS011;40911;51.552;9.874;2023-03-26T03:39:41;3.15;;;2.80;;
13795;SDS011;40911;51.552;9.874;2023-03-26T03:42:03;3.33;;;3.00;;
13795;SDS011;40911;51.552;9.874;2023-03-26T03:46:46;3.38;;;2.80;;
13795;SDS011;40911;51.552;9.874;2023-03-26T03:49:08;3.85;;;3.03;;
13795;SDS011;40911;51.552;9.874;2023-03-26T03:51:29;3.40;;;2.70;;
13795;SDS011;40911;51.552;9.874;2023-03-26T03:53:51;4.25;;;2.88;;
13795;SDS011;40911;51.552;9.874;2023-03-26T03:56:16;3.60;;;2.90;;
13795;SDS011;40911;51.552;9.874;2023-03-26T03:58:38;3.70;;;2.80;;
13795;SDS011;40911;51.552;9.874;2023-03-26T04:01:00;5.82;;;2.92;;
13795;SDS011;40911;51.552;9.874;2023-03-26T04:03:23;5.15;;;3.30;;
13795;SDS011;40911;51.552;9.874;2023-03-26T04:05:45;4.43;;;2.95;;
13795;SDS011;40911;51.552;9.874;2023-03-26T04:08:08;5.85;;;3.17;;
13795;SDS011;40911;51.552;9.874;2023-03-26T04:10:30;5.07;;;2.95;;
13795;SDS011;40911;51.552;9.874;2023-03-26T04:12:53;3.00;;;2.80;;
13795;SDS011;40911;51.552;9.874;2023-03-26T04:15:14;5.07;;;2.95;;
13795;SDS011;40911;51.552;9.874;2023-03-26T04:17:36;4.00;;;3.10;;
13795;SDS011;40911;51.552;9.874;2023-03-26T04:20:01;4.72;;;2.92;;
13795;SDS011;40911;51.552;9.874;2023-03-26T04:22:26;5.53;;;2.97;;
13795;SDS011;40911;51.552;9.874;2023-03-26T04:24:53;3.05;;;2.75;;
13795;SDS011;40911;51.552;9.874;2023-03-26T04:27:16;4.45;;;2.53;;
13795;SDS011;40911;51.552;9.874;2023-03-26T04:29:41;4.18;;;2.70;;
13795;SDS011;40911;51.552;9.874;2023-03-26T04:32:07;4.22;;;2.60;;
13795;SDS011;40911;51.552;9.874;2023-03-26T04:34:33;3.13;;;2.88;;
13795;SDS011;40911;51.552;9.874;2023-03-26T04:36:55;4.30;;;2.70;;
13795;SDS011;40911;51.552;9.874;2023-03-26T04:39:17;3.75;;;3.08;;
13795;SDS011;40911;51.552;9.874;2023-03-26T04:41:40;4.53;;;3.08;;
13795;SDS011;40911;51.552;9.874;2023-03-26T04:44:02;6.13;;;2.80;;
13795;SDS011;40911;51.552;9.874;2023-03-26T04:46:25;4.53;;;2.95;;
13795;SDS011;40911;51.552;9.874;2023-03-26T04:48:46;3.83;;;2.75;;
13795;SDS011;40911;51.552;9.874;2023-03-26T04:51:08;5.03;;;3.08;;
13795;SDS011;40911;51.552;9.874;2023-03-26T04:53:37;3.38;;;2.72;;
13795;SDS011;40911;51.552;9.874;2023-03-26T04:55:59;5.10;;;3.03;;
13795;SDS011;40911;51.552;9.874;2023-03-26T04:58:26;4.68;;;3.13;;
13795;SDS011;40911;51.552;9.874;2023-03-26T05:00:53;4.05;;;3.08;;
13795;SDS011;40911;51.552;9.874;2023-03-26T05:03:16;7.78;;;3.28;;
13795;SDS011;40911;51.552;9.874;2023-03-26T05:05:40;4.72;;;3.70;;
13795;SDS011;40911;51.552;9.874;2023-03-26T05:08:01;5.70;;;3.50;;
13795;SDS011;40911;51.552;9.874;2023-03-26T05:12:45;7.43;;;3.55;;
13795;SDS011;40911;51.552;9.874;2023-03-26T05:15:07;4.43;;;3.20;;
13795;SDS011;40911;51.552;9.874;2023-03-26T05:17:29;7.93;;;3.78;;
13795;SDS011;40911;51.552;9.874;2023-03-26T05:19:55;11.00;;;3.92;;
13795;SDS011;40911;51.552;9.874;2023-03-26T05:22:16;6.85;;;3.90;;
13795;SDS011;40911;51.552;9.874;2023-03-26T05:24:38;7.40;;;3.83;;
13795;SDS011;40911;51.552;9.874;2023-03-26T05:27:00;9.32;;;3.72;;
13795;SDS011;40911;51.552;9.874;2023-03-26T05:29:21;10.68;;;4.20;;
13795;SDS011;40911;51.552;9.874;2023-03-26T05:31:43;6.05;;;3.63;;
13795;SDS011;40911;51.552;9.874;2023-03-26T05:34:04;6.13;;;3.95;;
13795;SDS011;40911;51.552;9.874;2023-03-26T05:36:28;8.18;;;4.13;;
13795;SDS011;40911;51.552;9.874;2023-03-26T05:38:49;6.50;;;4.10;;
13795;SDS011;40911;51.552;9.874;2023-03-26T05:41:11;7.60;;;3.92;;
13795;SDS011;40911;51.552;9.874;2023-03-26T05:43:33;7.78;;;3.83;;
13795;SDS011;40911;51.552;9.874;2023-03-26T05:45:55;9.23;;;4.10;;
13795;SDS011;40911;51.552;9.874;2023-03-26T05:48:17;7.57;;;4.15;;
13795;SDS011;40911;51.552;9.874;2023-03-26T05:50:39;8.73;;;4.55;;
13795;SDS011;40911;51.552;9.874;2023-03-26T05:53:02;12.07;;;4.18;;
13795;SDS011;40911;51.552;9.874;2023-03-26T05:55:24;10.15;;;4.75;;
13795;SDS011;40911;51.552;9.874;2023-03-26T05:57:46;9.45;;;4.78;;
13795;SDS011;40911;51.552;9.874;2023-03-26T06:00:08;13.20;;;5.07;;
13795;SDS011;40911;51.552;9.874;2023-03-26T06:02:31;8.48;;;4.43;;
13795;SDS011;40911;51.552;9.874;2023-03-26T06:04:52;11.73;;;4.43;;
13795;SDS011;40911;51.552;9.874;2023-03-26T06:07:15;9.95;;;4.57;;
13795;SDS011;40911;51.552;9.874;2023-03-26T06:09:40;10.93;;;4.30;;
13795;SDS011;40911;51.552;9.874;2023-03-26T06:12:01;10.20;;;4.63;;
13795;SDS011;40911;51.552;9.874;2023-03-26T06:16:44;12.93;;;4.60;;
13795;SDS011;40911;51.552;9.874;2023-03-26T06:19:06;10.52;;;4.75;;
13795;SDS011;40911;51.552;9.874;2023-03-26T06:21:28;11.15;;;4.43;;
13795;SDS011;40911;51.552;9.874;2023-03-26T06:23:49;10.50;;;4.45;;
13795;SDS011;40911;51.552;9.874;2023-03-26T06:26:12;14.77;;;4.90;;
13795;SDS011;40911;51.552;9.874;2023-03-26T06:28:34;11.00;;;4.45;;
13795;SDS011;40911;51.552;9.874;2023-03-26T06:30:57;11.52;;;4.57;;
13795;SDS011;40911;51.552;9.874;2023-03-26T06:33:19;12.57;;;4.45;;
13795;SDS011;40911;51.552;9.874;2023-03-26T06:35:42;13.55;;;4.82;;
13795;SDS011;40911;51.552;9.874;2023-03-26T06:38:04;10.65;;;4.63;;
13795;SDS011;40911;51.552;9.874;2023-03-26T06:40:26;12.18;;;4.43;;
13795;SDS011;40911;51.552;9.874;2023-03-26T06:42:49;13.20;;;4.53;;
13795;SDS011;40911;51.552;9.874;2023-03-26T06:45:11;6.53;;;4.30;;
13795;SDS011;40911;51.552;9.874;2023-03-26T06:47:33;13.95;;;5.03;;
13795;SDS011;40911;51.552;9.874;2023-03-26T06:49:54;13.80;;;4.82;;
13795;SDS011;40911;51.552;9.874;2023-03-26T06:52:16;10.60;;;4.72;;
13795;SDS011;40911;51.552;9.874;2023-03-26T06:54:38;10.77;;;4.63;;
13795;SDS011;40911;51.552;9.874;2023-03-26T06:56:59;11.38;;;4.18;;
13795;SDS011;40911;51.552;9.874;2023-03-26T06:59:22;12.57;;;5.55;;
13795;SDS011;40911;51.552;9.874;2023-03-26T07:01:44;12.50;;;4.43;;
13795;SDS011;40911;51.552;9.874;2023-03-26T07:04:05;11.18;;;4.70;;
13795;SDS011;40911;51.552;9.874;2023-03-26T07:06:27;13.88;;;4.28;;
13795;SDS011;40911;51.552;9.874;2023-03-26T07:08:48;18.42;;;4.50;;
13795;SDS011;40911;51.552;9.874;2023-03-26T07:11:10;16.88;;;5.78;;
13795;SDS011;40911;51.552;9.874;2023-03-26T07:13:32;11.35;;;4.40;;
13795;SDS011;40911;51.552;9.874;2023-03-26T07:15:55;11.15;;;4.50;;
13795;SDS011;40911;51.552;9.874;2023-03-26T07:18:17;11.30;;;3.70;;
13795;SDS011;40911;51.552;9.874;2023-03-26T07:20:38;10.27;;;4.40;;
13795;SDS011;40911;51.552;9.874;2023-03-26T07:23:01;13.63;;;4.85;;
13795;SDS011;40911;51.552;9.874;2023-03-26T07:25:23;9.35;;;4.35;;
13795;SDS011;40911;51.552;9.874;2023-03-26T07:27:49;13.23;;;3.83;;
13795;SDS011;40911;51.552;9.874;2023-03-26T07:30:20;16.48;;;4.20;;
13795;SDS011;40911;51.552;9.874;2023-03-26T07:32:50;15.30;;;4.30;;
13795;SDS011;40911;51.552;9.874;2023-03-26T07:35:17;11.85;;;3.80;;
13795;SDS011;40911;51.552;9.874;2023-03-26T07:37:44;15.40;;;4.32;;
13795;SDS011;40911;51.552;9.874;2023-03-26T07:40:16;12.85;;;4.28;;
13795;SDS011;40911;51.552;9.874;2023-03-26T07:42:50;14.40;;;4.38;;
13795;SDS011;40911;51.552;9.874;2023-03-26T07:45:20;12.32;;;4.13;;
13795;SDS011;40911;51.552;9.874;2023-03-26T07:47:46;14.65;;;4.60;;
13795;SDS011;40911;51.552;9.874;2023-03-26T07:50:15;20.98;;;4.57;;
13795;SDS011;40911;51.552;9.874;2023-03-26T07:52:37;16.38;;;4.65;;
13795;SDS011;40911;51.552;9.874;2023-03-26T07:55:00;11.02;;;4.00;;
13795;SDS011;40911;51.552;9.874;2023-03-26T07:57:26;12.40;;;3.97;;
13795;SDS011;40911;51.552;9.874;2023-03-26T07:59:57;11.38;;;4.18;;
13795;SDS011;40911;51.552;9.874;2023-03-26T08:02:35;11.73;;;4.10;;
13795;SDS011;40911;51.552;9.874;2023-03-26T08:05:12;17.00;;;3.95;;
13795;SDS011;40911;51.552;9.874;2023-03-26T08:07:42;17.48;;;5.13;;
13795;SDS011;40911;51.552;9.874;2023-03-26T08:10:25;12.90;;;4.43;;
13795;SDS011;40911;51.552;9.874;2023-03-26T08:12:51;11.10;;;4.43;;
13795;SDS011;40911;51.552;9.874;2023-03-26T08:15:20;15.02;;;4.22;;
13795;SDS011;40911;51.552;9.874;2023-03-26T08:17:49;12.60;;;4.13;;
13795;SDS011;40911;51.552;9.874;2023-03-26T08:20:16;13.15;;;4.40;;
13795;SDS011;40911;51.552;9.874;2023-03-26T08:22:47;15.73;;;4.38;;
13795;SDS011;40911;51.552;9.874;2023-03-26T08:25:17;12.73;;;4.35;;
13795;SDS011;40911;51.552;9.874;2023-03-26T08:27:49;15.77;;;4.57;;
13795;SDS011;40911;51.552;9.874;2023-03-26T08:30:20;16.10;;;4.00;;
13795;SDS011;40911;51.552;9.874;2023-03-26T08:32:43;13.95;;;4.10;;
13795;SDS011;40911;51.552;9.874;2023-03-26T08:35:12;12.55;;;4.40;;
13795;SDS011;40911;51.552;9.874;2023-03-26T08:37:36;12.68;;;4.25;;
13795;SDS011;40911;51.552;9.874;2023-03-26T08:39:58;18.98;;;3.85;;
13795;SDS011;40911;51.552;9.874;2023-03-26T08:54:06;12.20;;;4.07;;
13795;SDS011;40911;51.552;9.874;2023-03-26T08:56:37;13.27;;;4.00;;
13795;SDS011;40911;51.552;9.874;2023-03-26T09:02:17;10.55;;;3.90;;
13795;SDS011;40911;51.552;9.874;2023-03-26T09:08:04;16.85;;;4.07;;
13795;SDS011;40911;51.552;9.874;2023-03-26T09:10:46;12.77;;;5.30;;
13795;SDS011;40911;51.552;9.874;2023-03-26T09:13:30;14.05;;;3.88;;
13795;SDS011;40911;51.552;9.874;2023-03-26T09:16:26;12.70;;;4.10;;
13795;SDS011;40911;51.552;9.874;2023-03-26T09:19:23;12.95;;;4.13;;
13795;SDS011;40911;51.552;9.874;2023-03-26T09:25:25;11.05;;;4.18;;
13795;SDS011;40911;51.552;9.874;2023-03-26T09:31:13;13.38;;;4.10;;
13795;SDS011;40911;51.552;9.874;2023-03-26T09:33:54;13.35;;;3.95;;
13795;SDS011;40911;51.552;9.874;2023-03-26T09:36:28;15.02;;;4.45;;
13795;SDS011;40911;51.552;9.874;2023-03-26T09:38:57;11.98;;;4.35;;
13795;SDS011;40911;51.552;9.874;2023-03-26T09:41:34;12.82;;;4.05;;
13795;SDS011;40911;51.552;9.874;2023-03-26T09:44:07;15.23;;;4.47;;
13795;SDS011;40911;51.552;9.874;2023-03-26T09:47:13;12.55;;;4.20;;
13795;SDS011;40911;51.552;9.874;2023-03-26T09:49:45;14.30;;;3.95;;
13795;SDS011;40911;51.552;9.874;2023-03-26T09:52:31;17.63;;;5.28;;
13795;SDS011;40911;51.552;9.874;2023-03-26T09:58:24;20.90;;;6.25;;
13795;SDS011;40911;51.552;9.874;2023-03-26T10:01:04;20.30;;;4.53;;
13795;SDS011;40911;51.552;9.874;2023-03-26T10:03:32;14.85;;;4.05;;
13795;SDS011;40911;51.552;9.874;2023-03-26T10:06:01;18.75;;;4.15;;
13795;SDS011;40911;51.552;9.874;2023-03-26T10:08:50;16.65;;;4.57;;
13795;SDS011;40911;51.552;9.874;2023-03-26T10:11:21;20.40;;;4.78;;
13795;SDS011;40911;51.552;9.874;2023-03-26T10:13:56;13.15;;;3.55;;
13795;SDS011;40911;51.552;9.874;2023-03-26T10:16:25;24.80;;;4.85;;
13795;SDS011;40911;51.552;9.874;2023-03-26T10:18:57;11.90;;;3.58;;
13795;SDS011;40911;51.552;9.874;2023-03-26T10:21:28;16.05;;;3.85;;
13795;SDS011;40911;51.552;9.874;2023-03-26T10:24:04;14.15;;;4.30;;
13795;SDS011;40911;51.552;9.874;2023-03-26T10:26:35;12.73;;;4.10;;
13795;SDS011;40911;51.552;9.874;2023-03-26T10:29:13;14.25;;;3.92;;
13795;SDS011;40911;51.552;9.874;2023-03-26T10:31:48;12.38;;;3.65;;
13795;SDS011;40911;51.552;9.874;2023-03-26T10:34:20;12.23;;;3.55;;
13795;SDS011;40911;51.552;9.874;2023-03-26T10:36:53;12.18;;;4.18;;
13795;SDS011;40911;51.552;9.874;2023-03-26T10:39:27;15.38;;;4.20;;
13795;SDS011;40911;51.552;9.874;2023-03-26T10:41:59;15.90;;;3.90;;
13795;SDS011;40911;51.552;9.874;2023-03-26T10:44:34;11.50;;;4.03;;
13795;SDS011;40911;51.552;9.874;2023-03-26T10:47:18;13.45;;;4.38;;
13795;SDS011;40911;51.552;9.874;2023-03-26T10:49:53;8.70;;;3.72;;
13795;SDS011;40911;51.552;9.874;2023-03-26T10:52:36;11.02;;;3.47;;
13795;SDS011;40911;51.552;9.874;2023-03-26T10:55:06;14.13;;;4.20;;
13795;SDS011;40911;51.552;9.874;2023-03-26T10:57:35;16.08;;;5.25;;
13795;SDS011;40911;51.552;9.874;2023-03-26T11:00:11;14.57;;;4.25;;
13795;SDS011;40911;51.552;9.874;2023-03-26T11:02:36;14.88;;;6.47;;
13795;SDS011;40911;51.552;9.874;2023-03-26T11:05:14;13.00;;;4.43;;
13795;SDS011;40911;51.552;9.874;2023-03-26T11:07:46;22.48;;;9.45;;
13795;SDS011;40911;51.552;9.874;2023-03-26T11:10:13;15.98;;;4.60;;
13795;SDS011;40911;51.552;9.874;2023-03-26T11:12:39;16.98;;;4.38;;
13795;SDS011;40911;51.552;9.874;2023-03-26T11:15:09;9.88;;;3.63;;
13795;SDS011;40911;51.552;9.874;2023-03-26T11:17:40;10.95;;;3.50;;
13795;SDS011;40911;51.552;9.874;2023-03-26T11:20:09;10.48;;;3.60;;
13795;SDS011;40911;51.552;9.874;2023-03-26T11:22:38;6.70;;;3.10;;
13795;SDS011;40911;51.552;9.874;2023-03-26T11:25:20;8.50;;;3.22;;
13795;SDS011;40911;51.552;9.874;2023-03-26T11:27:50;6.70;;;2.65;;
13795;SDS011;40911;51.552;9.874;2023-03-26T11:30:25;5.68;;;2.75;;
13795;SDS011;40911;51.552;9.874;2023-03-26T11:32:52;13.43;;;4.20;;
13795;SDS011;40911;51.552;9.874;2023-03-26T11:35:16;9.63;;;3.10;;
13795;SDS011;40911;51.552;9.874;2023-03-26T11:37:42;10.13;;;3.00;;
13795;SDS011;40911;51.552;9.874;2023-03-26T11:40:08;12.82;;;3.90;;
13795;SDS011;40911;51.552;9.874;2023-03-26T11:42:34;7.10;;;2.60;;
13795;SDS011;40911;51.552;9.874;2023-03-26T11:44:57;6.30;;;2.10;;
13795;SDS011;40911;51.552;9.874;2023-03-26T11:47:27;4.32;;;2.10;;
13795;SDS011;40911;51.552;9.874;2023-03-26T11:49:52;5.00;;;2.90;;
13795;SDS011;40911;51.552;9.874;2023-03-26T11:52:17;6.60;;;3.25;;
13795;SDS011;40911;51.552;9.874;2023-03-26T11:54:39;3.88;;;2.40;;
13795;SDS011;40911;51.552;9.874;2023-03-26T11:57:03;4.40;;;2.38;;
13795;SDS011;40911;51.552;9.874;2023-03-26T11:59:28;5.95;;;2.78;;
13795;SDS011;40911;51.552;9.874;2023-03-26T12:01:54;6.50;;;3.72;;
13795;SDS011;40911;51.552;9.874;2023-03-26T12:04:24;8.45;;;5.13;;
13795;SDS011;40911;51.552;9.874;2023-03-26T12:06:50;9.73;;;4.68;;
13795;SDS011;40911;51.552;9.874;2023-03-26T12:09:15;10.07;;;3.25;;
13795;SDS011;40911;51.552;9.874;2023-03-26T12:11:37;8.57;;;2.53;;
13795;SDS011;40911;51.552;9.874;2023-03-26T12:14:00;3.83;;;2.00;;
13795;SDS011;40911;51.552;9.874;2023-03-26T12:16:24;8.95;;;2.67;;
13795;SDS011;40911;51.552;9.874;2023-03-26T12:18:56;4.30;;;2.35;;
13795;SDS011;40911;51.552;9.874;2023-03-26T12:21:20;8.15;;;2.83;;
13795;SDS011;40911;51.552;9.874;2023-03-26T12:23:43;6.93;;;2.50;;
13795;SDS011;40911;51.552;9.874;2023-03-26T12:26:15;6.47;;;2.60;;
13795;SDS011;40911;51.552;9.874;2023-03-26T12:28:38;5.03;;;2.47;;
13795;SDS011;40911;51.552;9.874;2023-03-26T12:31:04;8.20;;;2.58;;
13795;SDS011;40911;51.552;9.874;2023-03-26T12:33:28;15.43;;;5.95;;
13795;SDS011;40911;51.552;9.874;2023-03-26T12:35:55;7.40;;;3.78;;
13795;SDS011;40911;51.552;9.874;2023-03-26T12:38:24;8.80;;;3.30;;
13795;SDS011;40911;51.552;9.874;2023-03-26T12:41:04;8.13;;;2.90;;
13795;SDS011;40911;51.552;9.874;2023-03-26T12:43:28;7.82;;;3.25;;
13795;SDS011;40911;51.552;9.874;2023-03-26T12:45:56;3.75;;;2.45;;
13795;SDS011;40911;51.552;9.874;2023-03-26T12:48:18;5.50;;;2.40;;
13795;SDS011;40911;51.552;9.874;2023-03-26T12:50:48;5.93;;;2.70;;
13795;SDS011;40911;51.552;9.874;2023-03-26T12:53:27;11.38;;;5.20;;
13795;SDS011;40911;51.552;9.874;2023-03-26T12:56:05;11.73;;;3.90;;
13795;SDS011;40911;51.552;9.874;2023-03-26T12:58:42;6.45;;;3.05;;
13795;SDS011;40911;51.552;9.874;2023-03-26T13:03:53;4.35;;;2.22;;
13795;SDS011;40911;51.552;9.874;2023-03-26T13:06:38;3.30;;;2.40;;
13795;SDS011;40911;51.552;9.874;2023-03-26T13:09:08;4.32;;;2.22;;
13795;SDS011;40911;51.552;9.874;2023-03-26T13:11:44;4.15;;;2.00;;
13795;SDS011;40911;51.552;9.874;2023-03-26T13:16:50;4.30;;;2.05;;
13795;SDS011;40911;51.552;9.874;2023-03-26T13:19:20;4.63;;;1.73;;
13795;SDS011;40911;51.552;9.874;2023-03-26T13:21:54;3.88;;;2.10;;
13795;SDS011;40911;51.552;9.874;2023-03-26T13:24:30;3.80;;;2.05;;
13795;SDS011;40911;51.552;9.874;2023-03-26T13:27:00;4.63;;;2.20;;
13795;SDS011;40911;51.552;9.874;2023-03-26T13:29:38;2.17;;;1.85;;
13795;SDS011;40911;51.552;9.874;2023-03-26T13:32:06;2.67;;;2.10;;
13795;SDS011;40911;51.552;9.874;2023-03-26T13:34:35;6.60;;;2.55;;
13795;SDS011;40911;51.552;9.874;2023-03-26T13:37:17;6.22;;;2.05;;
13795;SDS011;40911;51.552;9.874;2023-03-26T13:39:50;6.65;;;2.60;;
13795;SDS011;40911;51.552;9.874;2023-03-26T13:42:29;4.65;;;2.42;;
13795;SDS011;40911;51.552;9.874;2023-03-26T13:45:02;10.65;;;3.47;;
13795;SDS011;40911;51.552;9.874;2023-03-26T13:47:30;3.85;;;2.13;;
13795;SDS011;40911;51.552;9.874;2023-03-26T13:49:56;3.53;;;2.10;;
13795;SDS011;40911;51.552;9.874;2023-03-26T13:52:21;2.45;;;1.95;;
13795;SDS011;40911;51.552;9.874;2023-03-26T13:54:48;4.20;;;2.10;;
13795;SDS011;40911;51.552;9.874;2023-03-26T13:57:17;13.25;;;5.35;;
13795;SDS011;40911;51.552;9.874;2023-03-26T13:59:45;7.97;;;3.70;;
13795;SDS011;40911;51.552;9.874;2023-03-26T14:02:14;7.25;;;3.50;;
13795;SDS011;40911;51.552;9.874;2023-03-26T14:04:42;6.28;;;2.38;;
13795;SDS011;40911;51.552;9.874;2023-03-26T14:07:07;5.05;;;2.30;;
13795;SDS011;40911;51.552;9.874;2023-03-26T14:09:35;6.03;;;2.50;;
13795;SDS011;40911;51.552;9.874;2023-03-26T14:12:17;4.25;;;2.45;;
13795;SDS011;40911;51.552;9.874;2023-03-26T14:14:50;6.03;;;2.22;;
13795;SDS011;40911;51.552;9.874;2023-03-26T14:17:16;8.25;;;4.30;;
13795;SDS011;40911;51.552;9.874;2023-03-26T14:20:01;3.90;;;2.33;;
13795;SDS011;40911;51.552;9.874;2023-03-26T14:22:36;10.40;;;8.40;;
13795;SDS011;40911;51.552;9.874;2023-03-26T14:25:13;10.05;;;7.00;;
13795;SDS011;40911;51.552;9.874;2023-03-26T14:27:49;5.05;;;3.90;;
13795;SDS011;40911;51.552;9.874;2023-03-26T14:30:30;7.55;;;5.63;;
13795;SDS011;40911;51.552;9.874;2023-03-26T14:35:48;5.22;;;3.83;;
13795;SDS011;40911;51.552;9.874;2023-03-26T14:38:28;5.90;;;4.32;;
13795;SDS011;40911;51.552;9.874;2023-03-26T14:41:10;1.73;;;1.63;;
13795;SDS011;40911;51.552;9.874;2023-03-26T14:43:54;2.92;;;1.80;;
13795;SDS011;40911;51.552;9.874;2023-03-26T14:46:33;2.35;;;1.70;;
13795;SDS011;40911;51.552;9.874;2023-03-26T14:49:34;2.28;;;2.00;;
13795;SDS011;40911;51.552;9.874;2023-03-26T14:52:15;2.05;;;1.60;;
13795;SDS011;40911;51.552;9.874;2023-03-26T14:54:41;1.60;;;1.50;;
13795;SDS011;40911;51.552;9.874;2023-03-26T14:57:19;1.58;;;1.55;;
13795;SDS011;40911;51.552;9.874;2023-03-26T14:59:59;1.80;;;1.70;;
13795;SDS011;40911;51.552;9.874;2023-03-26T15:05:46;4.07;;;2.80;;
13795;SDS011;40911;51.552;9.874;2023-03-26T15:11:29;2.92;;;2.00;;
13795;SDS011;40911;51.552;9.874;2023-03-26T15:13:58;2.42;;;1.90;;
13795;SDS011;40911;51.552;9.874;2023-03-26T15:25:39;3.17;;;2.28;;
13795;SDS011;40911;51.552;9.874;2023-03-26T15:28:34;2.63;;;2.42;;
13795;SDS011;40911;51.552;9.874;2023-03-26T15:34:40;4.55;;;2.20;;
13795;SDS011;40911;51.552;9.874;2023-03-26T15:37:24;3.88;;;2.20;;
13795;SDS011;40911;51.552;9.874;2023-03-26T15:42:58;5.00;;;2.65;;
13795;SDS011;40911;51.552;9.874;2023-03-26T15:45:31;2.90;;;2.70;;
13795;SDS011;40911;51.552;9.874;2023-03-26T15:47:56;3.20;;;2.47;;
13795;SDS011;40911;51.552;9.874;2023-03-26T15:50:46;2.78;;;2.30;;
13795;SDS011;40911;51.552;9.874;2023-03-26T15:53:16;2.25;;;1.90;;
13795;SDS011;40911;51.552;9.874;2023-03-26T15:55:56;2.67;;;2.25;;
13795;SDS011;40911;51.552;9.874;2023-03-26T15:58:29;2.55;;;2.35;;